Time;durP1;ratioP1;P1;durP2;ratioP2;P2;SDS_P1;SDS_P2;PMS_P1;PMS_P2;Temp;Humidity;BMP_temperature;BMP_pressure;BME280_temperature;BME280_humidity;BME280_pressure;Samples;Min_cycle;Max_cycle;Signal;HPM_P1;HPM_P2
2023/04/13 00:02:18;;;;;;;6.95;1.70;;;7.40;99.90;;;;;;4979112;28;20055;-72
2023/04/13 00:04:44;;;;;;;4.15;1.40;;;7.40;99.90;;;;;;4985309;28;20077;-74
2023/04/13 00:07:13;;;;;;;5.13;1.48;;;7.40;99.90;;;;;;4961225;28;20570;-73
2023/04/13 00:09:40;;;;;;;4.13;1.40;;;7.40;99.90;;;;;;4974782;28;20042;-73
2023/04/13 00:12:06;;;;;;;5.50;1.67;;;7.40;99.90;;;;;;4974776;28;20050;-73
2023/04/13 00:14:32;;;;;;;7.72;1.80;;;7.30;99.90;;;;;;4976478;28;20055;-73
2023/04/13 00:16:58;;;;;;;5.07;2.03;;;7.20;99.90;;;;;;4973807;28;20198;-73
2023/04/13 00:19:24;;;;;;;3.65;1.73;;;7.00;99.90;;;;;;4944159;28;20121;-73
2023/04/13 00:21:52;;;;;;;2.97;1.40;;;6.90;99.90;;;;;;4975495;28;20056;-71
2023/04/13 00:24:18;;;;;;;3.38;1.50;;;6.80;99.90;;;;;;4977654;28;20045;-71
2023/04/13 00:26:45;;;;;;;2.97;1.50;;;6.70;99.90;;;;;;4973613;28;20125;-72
2023/04/13 00:29:11;;;;;;;3.83;1.50;;;6.70;99.90;;;;;;4947358;28;20073;-71
2023/04/13 00:31:37;;;;;;;4.55;1.40;;;6.60;99.90;;;;;;4980749;28;20509;-72
2023/04/13 00:34:03;;;;;;;2.88;1.40;;;6.50;99.90;;;;;;4973420;28;20077;-72
2023/04/13 00:36:28;;;;;;;4.05;1.30;;;6.50;99.90;;;;;;4981501;28;20034;-72
2023/04/13 00:38:56;;;;;;;4.25;1.20;;;6.40;99.90;;;;;;4972609;28;20069;-72
2023/04/13 00:41:23;;;;;;;4.07;1.33;;;6.40;99.90;;;;;;4978881;28;20050;-72
2023/04/13 00:43:49;;;;;;;3.03;1.42;;;6.40;99.90;;;;;;4974180;28;20076;-73
2023/04/13 00:46:17;;;;;;;4.75;1.70;;;6.40;99.90;;;;;;4953495;28;20051;-72
2023/04/13 00:48:44;;;;;;;4.15;1.50;;;6.40;99.90;;;;;;4975221;28;20061;-72
2023/04/13 00:51:12;;;;;;;6.15;2.60;;;6.40;99.90;;;;;;4963216;28;20101;-72
2023/04/13 00:53:39;;;;;;;4.80;2.00;;;6.30;99.90;;;;;;4949888;28;20556;-72
2023/04/13 00:56:05;;;;;;;3.28;1.50;;;6.30;99.90;;;;;;4978544;28;20122;-72
2023/04/13 00:58:32;;;;;;;3.72;1.60;;;6.30;99.90;;;;;;4979024;28;20472;-71
2023/04/13 01:00:57;;;;;;;2.40;1.35;;;6.40;99.90;;;;;;4977603;28;20193;-71
2023/04/13 01:03:24;;;;;;;3.10;1.70;;;6.30;99.90;;;;;;4959287;28;20310;-72
2023/04/13 01:06:16;;;;;;;6.22;2.00;;;6.30;99.90;;;;;;4946653;28;20054;-72
2023/04/13 01:09:10;;;;;;;3.03;1.48;;;6.30;99.90;;;;;;4977642;28;20509;-71
2023/04/13 01:11:42;;;;;;;3.40;1.63;;;6.30;99.90;;;;;;4975020;28;20122;-72
2023/04/13 01:14:37;;;;;;;3.17;1.48;;;6.30;99.90;;;;;;4940224;28;20065;-72
2023/04/13 01:17:09;;;;;;;4.70;1.90;;;6.30;99.90;;;;;;4961522;28;20051;-71
2023/04/13 01:20:10;;;;;;;4.68;1.48;;;6.30;99.90;;;;;;4971401;28;20043;-72
2023/04/13 01:22:41;;;;;;;3.70;1.92;;;6.30;99.90;;;;;;4974169;28;20413;-72
2023/04/13 01:25:10;;;;;;;4.05;1.60;;;6.30;99.90;;;;;;4977856;28;20061;-72
2023/04/13 01:27:50;;;;;;;2.75;1.38;;;6.30;99.90;;;;;;4973387;28;20042;-71
2023/04/13 01:30:22;;;;;;;3.85;1.83;;;6.30;99.90;;;;;;4975407;28;20057;-73
2023/04/13 01:32:50;;;;;;;4.05;1.75;;;6.30;99.90;;;;;;4974140;28;20046;-73
2023/04/13 01:35:18;;;;;;;5.32;1.83;;;6.30;99.90;;;;;;4976348;28;20069;-73
2023/04/13 01:37:45;;;;;;;3.40;2.00;;;6.30;99.90;;;;;;4976881;28;20065;-73
2023/04/13 01:40:12;;;;;;;4.72;2.03;;;6.30;99.90;;;;;;4974058;28;20371;-73
2023/04/13 01:42:44;;;;;;;3.38;1.80;;;6.30;99.90;;;;;;4974170;28;20137;-73
2023/04/13 01:45:17;;;;;;;6.07;2.13;;;6.40;99.90;;;;;;4973501;28;20042;-72
2023/04/13 01:47:58;;;;;;;4.45;1.90;;;6.40;99.90;;;;;;4953985;28;20050;-71
2023/04/13 01:50:28;;;;;;;6.65;1.90;;;6.40;99.90;;;;;;4973797;28;20146;-72
2023/04/13 01:52:59;;;;;;;7.13;1.90;;;6.40;99.90;;;;;;4970766;28;20055;-72
2023/04/13 01:55:25;;;;;;;5.18;1.88;;;6.40;99.90;;;;;;4971288;28;20122;-72
2023/04/13 01:57:53;;;;;;;3.75;1.70;;;6.40;99.90;;;;;;4970207;28;20049;-71
2023/04/13 02:00:19;;;;;;;3.35;1.88;;;6.40;99.90;;;;;;4969924;28;20047;-72
2023/04/13 02:02:45;;;;;;;4.18;1.90;;;6.40;99.90;;;;;;4971940;28;20053;-72
2023/04/13 02:05:11;;;;;;;4.43;1.60;;;6.40;99.90;;;;;;4966368;28;20065;-73
2023/04/13 02:07:39;;;;;;;4.85;1.98;;;6.40;99.90;;;;;;4972763;28;21160;-72
2023/04/13 02:10:05;;;;;;;5.00;2.00;;;6.40;99.90;;;;;;4957288;28;20462;-71
2023/04/13 02:12:33;;;;;;;5.38;2.00;;;6.40;99.90;;;;;;4952526;28;20065;-71
2023/04/13 02:15:00;;;;;;;4.38;2.03;;;6.40;99.90;;;;;;4976474;28;20050;-72
2023/04/13 02:17:29;;;;;;;3.60;2.10;;;6.40;99.90;;;;;;4970717;28;20848;-72
2023/04/13 02:19:56;;;;;;;4.55;1.90;;;6.40;99.90;;;;;;4971013;28;20050;-72
2023/04/13 02:22:22;;;;;;;4.47;1.90;;;6.40;99.90;;;;;;4970710;28;20069;-73
2023/04/13 02:24:49;;;;;;;4.97;1.92;;;6.40;99.90;;;;;;4937352;28;1127012;-73
2023/04/13 02:27:16;;;;;;;5.07;2.28;;;6.40;99.90;;;;;;4976707;28;20050;-72
2023/04/13 02:29:42;;;;;;;6.10;1.80;;;6.40;99.90;;;;;;4975789;28;20134;-72
2023/04/13 02:32:07;;;;;;;4.72;2.25;;;6.40;99.90;;;;;;4958667;28;20133;-72
2023/04/13 02:34:33;;;;;;;3.53;1.15;;;6.50;99.90;;;;;;4966399;28;20135;-70
2023/04/13 02:36:59;;;;;;;1.75;0.60;;;6.40;99.90;;;;;;4950895;28;20050;-70
2023/04/13 02:39:25;;;;;;;2.75;0.60;;;6.10;99.90;;;;;;4983312;28;20520;-70
2023/04/13 02:41:51;;;;;;;2.28;0.70;;;5.90;99.90;;;;;;4951465;28;20516;-70
2023/04/13 02:44:17;;;;;;;4.82;0.88;;;5.80;99.90;;;;;;4960930;28;20134;-70
2023/04/13 02:46:42;;;;;;;4.30;0.80;;;5.60;99.90;;;;;;4969365;28;20540;-70
2023/04/13 02:49:08;;;;;;;1.30;0.80;;;5.50;99.90;;;;;;4982980;28;20042;-70
2023/04/13 02:51:34;;;;;;;1.60;0.80;;;5.50;99.90;;;;;;4941498;28;20124;-70
2023/04/13 02:54:03;;;;;;;1.20;0.60;;;5.70;99.90;;;;;;4964993;28;20056;-70
2023/04/13 02:56:29;;;;;;;2.65;1.30;;;5.80;99.90;;;;;;4962329;28;20111;-71
2023/04/13 02:58:56;;;;;;;3.90;1.40;;;5.80;99.90;;;;;;4980423;28;20085;-71
2023/04/13 03:01:23;;;;;;;6.32;1.48;;;5.90;99.90;;;;;;4979927;28;20513;-71
2023/04/13 03:03:50;;;;;;;4.45;1.80;;;6.00;99.90;;;;;;5001720;28;20054;-72
2023/04/13 03:06:16;;;;;;;5.22;2.10;;;6.00;99.90;;;;;;4998818;28;20137;-72
2023/04/13 03:08:42;;;;;;;3.88;2.13;;;6.10;99.90;;;;;;4978630;28;20054;-72
2023/04/13 03:11:10;;;;;;;6.05;2.47;;;6.10;99.90;;;;;;4979896;28;20054;-73
2023/04/13 03:13:36;;;;;;;5.07;2.60;;;6.10;99.90;;;;;;4984397;28;20042;-72
2023/04/13 03:16:03;;;;;;;5.63;3.05;;;6.20;99.90;;;;;;4961509;28;20089;-72
2023/04/13 03:18:29;;;;;;;7.10;3.47;;;6.20;99.90;;;;;;4982338;28;20058;-72
2023/04/13 03:20:54;;;;;;;5.80;2.20;;;6.30;99.90;;;;;;4981748;28;20556;-72
2023/04/13 03:23:21;;;;;;;5.60;2.08;;;6.30;99.90;;;;;;4983615;28;21616;-72
2023/04/13 03:25:46;;;;;;;3.72;1.90;;;6.40;99.90;;;;;;4983141;28;20038;-72
2023/04/13 03:28:12;;;;;;;7.40;1.83;;;6.30;99.90;;;;;;4964770;28;20050;-73
2023/04/13 03:30:38;;;;;;;4.15;1.30;;;6.40;99.90;;;;;;4984274;28;20053;-72
2023/04/13 03:33:04;;;;;;;3.70;1.42;;;6.40;99.90;;;;;;4983439;28;20137;-72
2023/04/13 03:35:29;;;;;;;2.45;1.33;;;6.30;99.90;;;;;;4980235;28;20054;-71
2023/04/13 03:37:55;;;;;;;4.47;1.50;;;6.30;99.90;;;;;;4974387;28;20056;-71
2023/04/13 03:40:21;;;;;;;5.78;1.23;;;6.30;99.90;;;;;;4972392;28;20156;-71
2023/04/13 03:42:46;;;;;;;5.30;1.13;;;6.20;99.90;;;;;;4977521;28;20410;-72
2023/04/13 03:45:12;;;;;;;3.03;1.35;;;6.20;99.90;;;;;;4978182;28;20047;-72
2023/04/13 03:47:38;;;;;;;4.85;1.25;;;6.20;99.90;;;;;;4983311;28;20045;-71
2023/04/13 03:50:05;;;;;;;4.00;1.33;;;6.10;99.90;;;;;;4981856;28;20161;-72
2023/04/13 03:52:30;;;;;;;4.82;1.80;;;6.10;99.90;;;;;;4980459;28;20089;-72
2023/04/13 03:54:56;;;;;;;5.32;2.00;;;6.00;99.90;;;;;;4985864;28;20054;-72
2023/04/13 03:57:22;;;;;;;6.07;1.90;;;6.00;99.90;;;;;;4964663;28;20486;-70
2023/04/13 03:59:48;;;;;;;6.57;2.40;;;6.00;99.90;;;;;;4963823;28;20045;-71
2023/04/13 04:02:13;;;;;;;5.20;2.25;;;5.90;99.90;;;;;;4981479;28;20050;-71
2023/04/13 04:04:39;;;;;;;7.80;2.22;;;5.90;99.90;;;;;;4985072;28;20047;-72
2023/04/13 04:07:05;;;;;;;6.53;2.28;;;5.90;99.90;;;;;;4980145;28;20117;-71
2023/04/13 04:09:31;;;;;;;6.38;1.98;;;5.90;99.90;;;;;;4965780;28;20041;-71
2023/04/13 04:11:56;;;;;;;7.05;2.30;;;5.80;99.90;;;;;;4979687;28;20046;-72
2023/04/13 04:14:22;;;;;;;7.82;2.50;;;5.90;99.90;;;;;;4978891;28;20038;-72
2023/04/13 04:16:48;;;;;;;7.53;2.22;;;5.90;99.90;;;;;;4984171;28;20065;-71
2023/04/13 04:19:14;;;;;;;8.98;2.38;;;5.90;99.90;;;;;;4960212;28;20042;-72
2023/04/13 04:21:45;;;;;;;11.50;2.47;;;6.00;99.90;;;;;;4981531;28;20137;-72
2023/04/13 04:24:19;;;;;;;7.35;2.20;;;6.00;99.90;;;;;;4982664;28;20043;-72
2023/04/13 04:26:53;;;;;;;8.63;2.55;;;6.00;99.90;;;;;;4979117;28;20038;-72
2023/04/13 04:29:32;;;;;;;8.70;2.30;;;6.00;99.90;;;;;;4978990;28;20046;-72
2023/04/13 04:31:59;;;;;;;7.10;2.35;;;5.90;99.90;;;;;;4964741;28;20449;-72
2023/04/13 04:34:24;;;;;;;10.68;2.50;;;5.90;99.90;;;;;;4979991;28;20270;-72
2023/04/13 04:36:51;;;;;;;12.85;3.00;;;5.90;99.90;;;;;;4975800;28;20304;-72
2023/04/13 04:39:25;;;;;;;7.63;2.35;;;5.90;99.90;;;;;;4981523;28;20047;-71
2023/04/13 04:42:01;;;;;;;7.68;2.38;;;5.80;99.90;;;;;;4962117;28;20234;-71
2023/04/13 04:44:29;;;;;;;12.00;2.97;;;5.80;99.90;;;;;;4972914;28;20050;-72
2023/04/13 04:46:58;;;;;;;9.80;2.78;;;5.80;99.90;;;;;;4974358;28;20091;-71
2023/04/13 04:49:26;;;;;;;15.07;3.13;;;5.70;99.90;;;;;;4974179;28;21888;-71
2023/04/13 04:51:53;;;;;;;5.63;2.05;;;5.80;99.90;;;;;;4985074;28;20490;-72
2023/04/13 04:54:19;;;;;;;7.72;2.42;;;5.70;99.90;;;;;;4969226;28;20577;-71
2023/04/13 04:56:46;;;;;;;16.33;3.30;;;5.70;99.90;;;;;;4952716;28;20066;-71
2023/04/13 04:59:12;;;;;;;12.73;2.75;;;5.70;99.90;;;;;;4971017;28;20564;-71
2023/04/13 05:01:39;;;;;;;10.82;2.72;;;5.70;99.90;;;;;;4950813;28;20057;-72
2023/04/13 05:04:06;;;;;;;9.40;2.33;;;5.70;99.90;;;;;;4970129;28;20517;-72
2023/04/13 05:06:32;;;;;;;8.90;2.45;;;5.60;99.90;;;;;;4955381;28;20050;-72
2023/04/13 05:09:03;;;;;;;9.82;2.70;;;5.70;99.90;;;;;;4956820;28;21166;-71
2023/04/13 05:11:29;;;;;;;11.10;2.95;;;5.70;99.90;;;;;;4958250;28;20075;-72
2023/04/13 05:13:55;;;;;;;7.70;2.20;;;5.70;99.90;;;;;;4939050;28;20478;-72
2023/04/13 05:16:22;;;;;;;11.23;2.63;;;5.90;99.90;;;;;;4972406;28;20046;-71
2023/04/13 05:18:48;;;;;;;12.48;2.70;;;5.90;99.90;;;;;;4979596;28;20046;-75
2023/04/13 05:21:14;;;;;;;15.98;3.22;;;6.00;99.90;;;;;;4974356;28;20112;-75
2023/04/13 05:23:41;;;;;;;13.90;2.92;;;6.10;99.90;;;;;;4976281;28;20502;-75
2023/04/13 05:26:09;;;;;;;11.95;2.70;;;6.20;99.90;;;;;;4955381;28;20486;-75
2023/04/13 05:28:35;;;;;;;12.93;3.15;;;6.30;99.90;;;;;;4974316;28;20166;-73
2023/04/13 05:31:05;;;;;;;5.63;2.05;;;6.40;99.90;;;;;;4977335;28;20055;-74
2023/04/13 05:33:35;;;;;;;9.85;2.33;;;6.40;99.90;;;;;;4975664;28;20058;-72
2023/04/13 05:36:02;;;;;;;12.57;2.83;;;6.50;99.90;;;;;;4974549;28;20042;-74
2023/04/13 05:38:28;;;;;;;11.00;2.65;;;6.60;99.90;;;;;;4970902;28;20472;-73
2023/04/13 05:40:53;;;;;;;9.02;2.15;;;6.60;99.90;;;;;;4972769;28;20065;-73
2023/04/13 05:43:20;;;;;;;9.82;2.03;;;6.60;99.90;;;;;;4977224;28;20541;-73
2023/04/13 05:45:46;;;;;;;5.45;1.92;;;6.60;99.90;;;;;;4974849;28;20080;-73
2023/04/13 05:48:12;;;;;;;7.75;2.22;;;6.60;99.90;;;;;;4954913;28;20034;-73
2023/04/13 05:50:38;;;;;;;5.65;2.03;;;6.60;99.90;;;;;;4960314;28;20048;-71
2023/04/13 05:53:07;;;;;;;8.88;2.55;;;6.50;99.90;;;;;;4967368;28;20054;-74
2023/04/13 05:55:33;;;;;;;10.68;2.60;;;6.50;99.90;;;;;;4955104;28;20031;-74
2023/04/13 05:58:02;;;;;;;8.20;2.97;;;6.50;99.90;;;;;;4957428;28;20058;-73
2023/04/13 06:00:28;;;;;;;7.45;2.45;;;6.50;99.90;;;;;;4952126;28;20073;-73
2023/04/13 06:02:54;;;;;;;13.95;2.65;;;6.50;99.90;;;;;;4963724;28;20043;-73
2023/04/13 06:05:21;;;;;;;14.35;3.50;;;6.50;99.90;;;;;;4967871;28;20545;-73
2023/04/13 06:07:46;;;;;;;7.88;2.78;;;6.50;99.90;;;;;;4958675;28;20043;-73
2023/04/13 06:10:15;;;;;;;9.30;3.28;;;6.60;99.90;;;;;;4966068;28;20502;-74
2023/04/13 06:12:42;;;;;;;8.90;3.20;;;6.80;99.90;;;;;;4962314;28;20095;-72
2023/04/13 06:15:08;;;;;;;12.45;3.63;;;6.90;99.90;;;;;;4956907;28;20039;-77
2023/04/13 06:17:34;;;;;;;14.13;4.00;;;7.00;99.90;;;;;;4959736;28;20038;-80
2023/04/13 06:20:01;;;;;;;7.88;2.97;;;7.00;99.90;;;;;;4959332;28;20050;-79
2023/04/13 06:22:27;;;;;;;10.73;3.40;;;7.00;99.90;;;;;;4960040;28;20125;-79
2023/04/13 06:24:52;;;;;;;10.88;3.15;;;7.00;99.90;;;;;;4958976;28;20062;-79
2023/04/13 06:27:18;;;;;;;10.32;2.88;;;7.10;99.90;;;;;;4958543;28;20509;-77
2023/04/13 06:29:44;;;;;;;14.30;3.40;;;7.10;99.90;;;;;;4951959;28;20046;-78
2023/04/13 06:32:10;;;;;;;10.35;2.83;;;7.10;99.90;;;;;;4969857;28;20143;-78
2023/04/13 06:34:36;;;;;;;8.93;2.65;;;7.10;99.90;;;;;;4978185;28;20042;-80
2023/04/13 06:37:02;;;;;;;12.50;3.60;;;7.30;99.90;;;;;;4961897;28;20496;-76
2023/04/13 06:39:30;;;;;;;13.68;3.20;;;7.40;99.90;;;;;;4960422;28;20425;-77
2023/04/13 06:41:56;;;;;;;11.82;3.35;;;7.60;99.90;;;;;;4957500;28;20050;-77
2023/04/13 06:44:23;;;;;;;13.80;4.40;;;7.90;99.90;;;;;;4958928;28;20413;-78
2023/04/13 06:46:48;;;;;;;13.20;3.08;;;8.10;99.90;;;;;;4961407;28;20126;-77
2023/04/13 06:49:14;;;;;;;7.30;2.13;;;8.30;99.90;;;;;;4970153;28;20129;-76
2023/04/13 06:51:40;;;;;;;19.02;6.18;;;8.30;99.90;;;;;;4966572;28;20043;-78
2023/04/13 06:54:05;;;;;;;4.55;1.88;;;8.30;99.90;;;;;;4958282;28;20043;-77
2023/04/13 06:56:31;;;;;;;8.30;2.80;;;8.30;99.90;;;;;;4960525;28;20047;-78
2023/04/13 06:59:00;;;;;;;9.85;2.30;;;8.50;99.90;;;;;;4960665;28;20047;-78
2023/04/13 07:01:26;;;;;;;9.93;1.83;;;8.50;99.90;;;;;;4957469;28;20039;-78
2023/04/13 07:03:52;;;;;;;11.52;3.17;;;8.30;99.90;;;;;;4975300;28;20541;-79
2023/04/13 07:06:18;;;;;;;4.85;1.55;;;8.30;99.90;;;;;;4953337;28;22078;-78
2023/04/13 07:08:44;;;;;;;8.95;1.70;;;8.20;99.90;;;;;;4961668;28;20046;-78
2023/04/13 07:11:09;;;;;;;8.02;1.65;;;8.20;99.90;;;;;;4943727;28;20517;-78
2023/04/13 07:13:35;;;;;;;6.45;1.92;;;8.10;99.90;;;;;;4959198;28;20054;-77
2023/04/13 07:16:01;;;;;;;10.80;2.35;;;8.10;99.90;;;;;;4942961;28;20601;-75
2023/04/13 07:18:27;;;;;;;10.80;3.08;;;8.10;99.90;;;;;;4960520;28;20050;-77
2023/04/13 07:20:52;;;;;;;6.28;1.90;;;8.10;99.90;;;;;;4961414;28;20487;-77
2023/04/13 07:23:18;;;;;;;9.82;2.85;;;8.10;99.90;;;;;;4959596;28;20629;-78
2023/04/13 07:25:44;;;;;;;10.20;3.00;;;8.30;99.90;;;;;;4959583;28;20047;-79
2023/04/13 07:28:09;;;;;;;7.32;2.55;;;8.50;99.90;;;;;;4959363;28;20588;-78
2023/04/13 07:30:35;;;;;;;10.23;2.30;;;8.60;99.90;;;;;;4959555;28;20206;-78
2023/04/13 07:33:01;;;;;;;10.70;2.38;;;8.60;99.90;;;;;;4958399;28;20042;-75
2023/04/13 07:35:27;;;;;;;9.30;2.83;;;8.70;99.90;;;;;;4960348;28;20636;-77
2023/04/13 07:37:52;;;;;;;9.25;3.20;;;8.80;99.90;;;;;;4961497;28;20144;-77
2023/04/13 07:40:18;;;;;;;14.63;3.45;;;8.80;99.90;;;;;;4958869;28;20043;-77
2023/04/13 07:42:46;;;;;;;8.18;2.38;;;8.80;99.90;;;;;;4941167;28;20035;-79
2023/04/13 07:45:11;;;;;;;7.95;1.50;;;8.60;99.90;;;;;;4954433;28;20031;-79
2023/04/13 07:47:37;;;;;;;7.45;1.40;;;8.50;99.90;;;;;;4965269;28;20469;-79
2023/04/13 07:50:05;;;;;;;5.88;1.70;;;8.40;99.90;;;;;;4970068;28;20051;-79
2023/04/13 07:52:31;;;;;;;4.85;1.00;;;8.10;99.90;;;;;;4956047;28;20074;-79
2023/04/13 07:54:56;;;;;;;4.05;1.23;;;7.90;99.90;;;;;;4957357;28;20051;-81
2023/04/13 07:57:22;;;;;;;5.55;1.70;;;7.70;99.90;;;;;;4957086;28;20061;-76
2023/04/13 07:59:48;;;;;;;2.50;0.90;;;7.50;99.90;;;;;;4961019;28;20098;-77
2023/04/13 08:02:15;;;;;;;2.75;1.58;;;7.30;99.90;;;;;;4957489;28;20039;-78
2023/04/13 08:04:41;;;;;;;8.48;1.65;;;7.10;99.90;;;;;;4956577;28;20101;-77
2023/04/13 08:07:07;;;;;;;5.88;2.08;;;7.20;99.90;;;;;;4962901;28;20462;-76
2023/04/13 08:09:39;;;;;;;5.57;1.88;;;7.30;99.90;;;;;;4955568;28;20735;-76
2023/04/13 08:12:05;;;;;;;7.85;2.92;;;7.70;99.90;;;;;;4954436;28;20472;-76
2023/04/13 08:14:31;;;;;;;6.30;2.10;;;8.00;99.90;;;;;;4965346;28;20035;-76
2023/04/13 08:16:56;;;;;;;9.48;2.70;;;8.20;99.90;;;;;;4963191;28;20065;-76
2023/04/13 08:19:22;;;;;;;8.57;2.75;;;8.40;99.90;;;;;;4980694;28;20414;-76
2023/04/13 08:21:48;;;;;;;7.90;2.15;;;8.60;99.90;;;;;;4967161;28;20046;-76
2023/04/13 08:24:14;;;;;;;6.07;1.90;;;8.80;99.90;;;;;;4957223;28;20051;-75
2023/04/13 08:26:40;;;;;;;10.15;3.13;;;9.00;99.90;;;;;;4957445;28;20457;-75
2023/04/13 08:29:05;;;;;;;5.18;2.35;;;9.00;99.90;;;;;;4941093;28;20111;-73
2023/04/13 08:31:31;;;;;;;9.52;1.70;;;8.70;99.90;;;;;;4957345;28;20085;-75
2023/04/13 08:33:57;;;;;;;5.30;1.38;;;8.50;99.90;;;;;;4957004;28;20043;-78
2023/04/13 08:36:23;;;;;;;3.30;0.80;;;8.30;99.90;;;;;;4961997;28;20196;-77
2023/04/13 08:38:48;;;;;;;7.03;1.25;;;8.30;99.90;;;;;;4959037;28;20039;-77
2023/04/13 08:41:16;;;;;;;4.13;1.45;;;8.20;99.90;;;;;;4954309;28;20056;-77
2023/04/13 08:43:42;;;;;;;10.27;3.55;;;8.30;99.90;;;;;;4960008;28;20126;-77
2023/04/13 08:46:08;;;;;;;9.32;2.40;;;8.30;99.90;;;;;;4962214;28;20463;-77
2023/04/13 08:48:40;;;;;;;5.47;1.17;;;8.30;99.90;;;;;;4964586;28;20779;-77
2023/04/13 08:51:08;;;;;;;7.63;1.65;;;8.20;99.90;;;;;;4961072;28;20093;-75
2023/04/13 08:53:33;;;;;;;6.57;1.50;;;8.40;99.90;;;;;;4959166;28;20054;-76
2023/04/13 08:56:00;;;;;;;6.72;1.50;;;8.60;99.90;;;;;;4960328;28;20332;-76
2023/04/13 08:58:30;;;;;;;4.30;1.05;;;9.00;99.90;;;;;;4958658;28;20051;-77
2023/04/13 09:00:57;;;;;;;6.32;1.40;;;9.20;99.90;;;;;;4955777;28;20077;-76
2023/04/13 09:03:24;;;;;;;5.68;1.02;;;9.30;99.90;;;;;;4953267;28;20050;-76
2023/04/13 09:05:58;;;;;;;7.28;2.20;;;9.50;99.90;;;;;;4956703;28;20039;-77
2023/04/13 09:08:25;;;;;;;2.90;1.15;;;9.60;99.90;;;;;;4970864;28;20241;-77
2023/04/13 09:10:53;;;;;;;3.67;0.95;;;9.60;99.90;;;;;;4956485;28;20513;-76
2023/04/13 09:13:18;;;;;;;7.72;1.50;;;9.60;99.90;;;;;;4961273;28;20043;-77
2023/04/13 09:15:46;;;;;;;7.63;1.33;;;9.70;99.90;;;;;;4954916;28;20065;-75
2023/04/13 09:18:12;;;;;;;5.68;1.20;;;9.70;99.90;;;;;;4962554;28;20041;-75
2023/04/13 09:20:39;;;;;;;3.45;1.17;;;9.90;99.90;;;;;;4963183;28;20133;-74
2023/04/13 09:23:15;;;;;;;2.88;0.95;;;10.20;99.90;;;;;;4963092;28;20130;-74
2023/04/13 09:25:41;;;;;;;4.57;1.35;;;10.10;99.90;;;;;;4956200;28;20058;-76
2023/04/13 09:28:18;;;;;;;6.22;0.90;;;10.00;99.90;;;;;;4975400;28;20121;-76
2023/04/13 09:30:44;;;;;;;1.75;0.40;;;9.90;99.90;;;;;;4962259;28;20046;-76
2023/04/13 09:33:11;;;;;;;5.13;1.42;;;9.50;99.90;;;;;;4960459;28;20515;-76
2023/04/13 09:35:38;;;;;;;9.50;0.60;;;9.30;99.90;;;;;;4963163;28;20039;-77
2023/04/13 09:38:04;;;;;;;3.08;0.88;;;9.10;99.90;;;;;;4963378;28;20055;-77
2023/04/13 09:40:31;;;;;;;7.30;1.52;;;9.10;99.90;;;;;;4961542;28;20130;-77
2023/04/13 09:43:01;;;;;;;7.72;1.40;;;9.30;99.90;;;;;;4962852;28;20070;-78
2023/04/13 09:45:35;;;;;;;4.95;0.93;;;9.50;99.90;;;;;;4964745;28;20498;-76
2023/04/13 09:48:05;;;;;;;2.35;0.90;;;9.70;99.90;;;;;;4965344;28;20042;-76
2023/04/13 09:50:33;;;;;;;2.72;0.90;;;9.90;99.90;;;;;;4946710;28;20046;-76
2023/04/13 09:53:00;;;;;;;2.70;1.00;;;10.10;99.90;;;;;;4975654;28;20455;-76
2023/04/13 09:55:26;;;;;;;6.13;1.20;;;10.30;99.90;;;;;;4962524;28;20043;-76
2023/04/13 09:57:52;;;;;;;5.18;1.42;;;10.40;99.90;;;;;;4947753;28;20039;-75
2023/04/13 10:00:22;;;;;;;4.38;1.20;;;10.20;99.90;;;;;;4965431;28;20600;-77
2023/04/13 10:02:52;;;;;;;8.02;1.58;;;9.90;99.90;;;;;;4965041;28;20094;-75
2023/04/13 10:05:18;;;;;;;4.70;1.27;;;9.70;99.90;;;;;;4963555;28;20118;-77
2023/04/13 10:07:46;;;;;;;3.33;0.70;;;9.50;99.90;;;;;;4963411;28;20544;-77
2023/04/13 10:10:12;;;;;;;7.07;1.77;;;9.20;99.90;;;;;;4964393;28;20047;-75
2023/04/13 10:12:48;;;;;;;8.73;1.80;;;8.80;99.90;;;;;;4950852;28;20541;-75
2023/04/13 10:15:26;;;;;;;6.65;1.70;;;8.60;99.90;;;;;;4966927;28;20050;-74
2023/04/13 10:18:05;;;;;;;7.03;1.63;;;8.40;99.90;;;;;;4966677;28;20049;-75
2023/04/13 10:20:32;;;;;;;2.22;0.65;;;8.40;99.90;;;;;;4963237;28;20141;-77
2023/04/13 10:22:58;;;;;;;2.80;0.75;;;8.10;99.90;;;;;;4980007;28;20515;-79
2023/04/13 10:25:24;;;;;;;2.75;1.02;;;7.90;99.90;;;;;;4974923;28;20106;-78
2023/04/13 10:27:59;;;;;;;2.40;0.75;;;7.70;99.90;;;;;;4975596;28;20462;-80
2023/04/13 10:30:26;;;;;;;2.72;0.80;;;7.80;99.90;;;;;;4974074;28;20093;-80
2023/04/13 10:33:06;;;;;;;2.63;0.75;;;8.00;99.90;;;;;;4975038;28;20039;-80
2023/04/13 10:35:35;;;;;;;7.63;1.55;;;8.30;99.90;;;;;;4977889;28;20265;-79
2023/04/13 10:38:01;;;;;;;6.65;1.50;;;8.70;99.90;;;;;;4973595;28;20109;-76
2023/04/13 10:40:27;;;;;;;7.50;1.98;;;8.90;99.90;;;;;;4954118;28;20046;-78
2023/04/13 10:42:53;;;;;;;7.57;1.75;;;9.10;99.90;;;;;;4966849;28;20043;-79
2023/04/13 10:45:26;;;;;;;7.18;1.50;;;9.10;99.90;;;;;;4963415;28;20051;-79
2023/04/13 10:47:53;;;;;;;7.35;1.92;;;9.10;99.90;;;;;;4968640;28;20090;-78
2023/04/13 10:50:21;;;;;;;12.60;2.05;;;9.10;99.90;;;;;;4968049;28;20134;-79
2023/04/13 10:53:04;;;;;;;15.95;3.25;;;9.20;99.90;;;;;;4968973;28;20039;-77
2023/04/13 10:55:31;;;;;;;11.95;3.03;;;9.30;99.90;;;;;;4961378;28;20042;-78
2023/04/13 10:57:58;;;;;;;6.20;1.80;;;9.30;99.90;;;;;;4966995;28;20042;-76
2023/04/13 11:00:26;;;;;;;3.67;0.95;;;9.10;99.90;;;;;;4959287;28;20394;-78
2023/04/13 11:02:55;;;;;;;3.33;0.70;;;8.80;99.90;;;;;;4966292;28;21952;-77
2023/04/13 11:05:21;;;;;;;5.03;1.63;;;8.70;99.90;;;;;;4962688;28;22818;-75
2023/04/13 11:07:48;;;;;;;5.10;1.25;;;8.70;99.90;;;;;;4963730;28;20043;-77
2023/04/13 11:10:15;;;;;;;5.63;1.35;;;8.70;99.90;;;;;;4971589;28;20046;-80
2023/04/13 11:12:52;;;;;;;6.47;1.50;;;9.00;99.90;;;;;;4985676;28;20097;-78
2023/04/13 11:15:22;;;;;;;6.80;1.45;;;9.40;99.90;;;;;;4964327;28;20420;-77
2023/04/13 11:17:52;;;;;;;12.82;2.33;;;9.70;99.90;;;;;;4966022;28;20045;-76
2023/04/13 11:20:18;;;;;;;10.30;1.92;;;10.10;99.90;;;;;;4949557;28;20502;-78
2023/04/13 11:22:44;;;;;;;16.33;3.20;;;10.30;99.90;;;;;;4963385;28;20038;-78
2023/04/13 11:25:10;;;;;;;14.75;3.90;;;10.50;99.90;;;;;;4979391;28;20081;-78
2023/04/13 11:27:37;;;;;;;10.52;2.67;;;10.60;99.90;;;;;;4984809;28;20130;-78
2023/04/13 11:30:05;;;;;;;14.23;2.53;;;10.50;99.90;;;;;;4986658;28;20073;-77
2023/04/13 11:32:38;;;;;;;11.18;2.22;;;10.30;99.90;;;;;;4982710;28;20070;-78
2023/04/13 11:35:13;;;;;;;8.05;2.22;;;10.20;99.90;;;;;;4965216;28;20501;-77
2023/04/13 11:37:44;;;;;;;7.38;2.00;;;10.10;99.90;;;;;;4983015;28;20046;-78
2023/04/13 11:40:20;;;;;;;14.68;3.25;;;10.00;99.90;;;;;;4985369;28;20042;-77
2023/04/13 11:42:57;;;;;;;9.65;3.03;;;9.90;99.90;;;;;;4964313;28;20100;-77
2023/04/13 11:45:28;;;;;;;12.90;2.45;;;9.80;99.90;;;;;;4986233;28;20129;-77
2023/04/13 11:47:55;;;;;;;8.38;2.42;;;9.90;99.90;;;;;;4985384;28;20097;-77
2023/04/13 11:50:22;;;;;;;11.82;2.08;;;10.00;99.90;;;;;;4984387;28;20548;-77
2023/04/13 11:52:56;;;;;;;13.25;2.38;;;10.20;99.90;;;;;;4983673;28;20047;-76
2023/04/13 11:55:22;;;;;;;11.25;2.38;;;10.20;99.90;;;;;;4983483;28;20060;-77
2023/04/13 11:57:48;;;;;;;13.25;2.58;;;10.20;99.90;;;;;;4985586;28;20051;-78
2023/04/13 12:00:22;;;;;;;9.90;2.38;;;10.30;99.90;;;;;;4983998;28;20102;-77
2023/04/13 12:02:50;;;;;;;10.50;2.13;;;10.30;99.90;;;;;;4963548;28;20136;-76
2023/04/13 12:05:24;;;;;;;6.75;1.50;;;10.40;99.90;;;;;;4965213;28;22619;-78
2023/04/13 12:07:53;;;;;;;14.40;2.80;;;10.30;99.90;;;;;;4984975;28;20129;-77
2023/04/13 12:10:23;;;;;;;9.15;1.92;;;10.20;99.90;;;;;;4969611;28;20163;-77
2023/04/13 12:12:57;;;;;;;11.95;2.13;;;10.30;99.90;;;;;;4967759;28;20047;-77
2023/04/13 12:15:34;;;;;;;7.18;2.13;;;10.30;99.90;;;;;;4965649;28;20049;-78
2023/04/13 12:18:01;;;;;;;10.60;2.15;;;10.30;99.90;;;;;;4989172;28;20043;-80
2023/04/13 12:20:39;;;;;;;3.90;1.58;;;10.20;99.90;;;;;;4981807;28;20051;-77
2023/04/13 12:23:22;;;;;;;16.98;3.13;;;10.20;99.90;;;;;;4965765;28;20074;-76
2023/04/13 12:26:04;;;;;;;11.75;2.13;;;10.20;99.90;;;;;;4985982;28;20038;-77
2023/04/13 12:28:36;;;;;;;21.35;5.45;;;10.20;99.90;;;;;;4981365;28;20168;-76
2023/04/13 12:31:06;;;;;;;9.48;2.40;;;10.20;99.90;;;;;;4982703;28;20501;-77
2023/04/13 12:33:32;;;;;;;9.57;1.92;;;10.20;99.90;;;;;;4975920;28;20061;-78
2023/04/13 12:35:58;;;;;;;11.32;3.08;;;10.30;99.90;;;;;;4981778;28;20510;-78
2023/04/13 12:38:25;;;;;;;12.82;2.45;;;10.30;99.90;;;;;;4947320;28;20045;-76
2023/04/13 12:40:55;;;;;;;7.60;1.50;;;10.40;99.90;;;;;;4951217;28;20050;-71
2023/04/13 12:43:22;;;;;;;13.30;3.35;;;10.40;99.90;;;;;;4985254;28;20046;-74
2023/04/13 12:45:48;;;;;;;11.18;2.45;;;10.30;99.90;;;;;;4970755;28;20128;-77
2023/04/13 12:48:14;;;;;;;9.73;2.78;;;10.20;99.90;;;;;;4987457;28;20084;-77
2023/04/13 12:50:39;;;;;;;16.35;3.28;;;10.10;99.90;;;;;;4965862;28;20450;-76
2023/04/13 12:53:05;;;;;;;12.10;3.10;;;10.10;99.90;;;;;;4984104;28;20409;-76
2023/04/13 12:55:31;;;;;;;8.65;1.92;;;10.10;99.90;;;;;;4967839;28;20105;-76
2023/04/13 12:57:57;;;;;;;11.45;2.67;;;10.20;99.90;;;;;;4987196;28;20049;-75